« Back
NWS Peachtree City, Ga » Text Product » ATL Terminal Aerodrome Forecast


Printer-friendly Version
Current Version              Previous Versions:   1  2  3  4  5  6  7  8  9  

Terminal Aerodrome Forecast

454
FTUS42 KFFC 212159 AAB
TAFATL
TAF AMD
KATL 212159Z 2122/2224 02006KT P6SM SKC
     FM220000 07006KT P6SM FEW250
     FM221300 09010KT P6SM SCT025
     FM222000 10008KT P6SM BKN025=

USA.gov is the U.S. government's official web portal to all federal, state and local government web resources and services.